Time;durP1;ratioP1;P1;durP2;ratioP2;P2;SDS_P1;SDS_P2;PMS_P1;PMS_P2;Temp;Humidity;BMP_temperature;BMP_pressure;BME280_temperature;BME280_humidity;BME280_pressure;Samples;Min_cycle;Max_cycle;Signal;HPM_P1;HPM_P2
2022/07/24 00:02:06;;;;;;;19.58;10.55;;;;;;;19.45;66.77;101520.25;5035918;28;20095;-60
2022/07/24 00:04:32;;;;;;;21.50;10.00;;;;;;;19.41;67.50;101516.28;5063351;28;20390;-60
2022/07/24 00:07:01;;;;;;;19.13;10.35;;;;;;;19.32;67.66;101512.91;5073266;28;20056;-60
2022/07/24 00:09:27;;;;;;;29.65;10.35;;;;;;;19.35;67.61;101518.72;5073350;28;20056;-60
2022/07/24 00:11:54;;;;;;;19.55;10.25;;;;;;;19.31;67.75;101520.13;5072985;28;20405;-61
2022/07/24 00:14:21;;;;;;;17.98;10.18;;;;;;;19.30;68.14;101506.88;5073184;28;20033;-61
2022/07/24 00:16:47;;;;;;;18.73;10.18;;;;;;;19.25;68.33;101503.94;5073001;28;20140;-61
2022/07/24 00:19:14;;;;;;;20.67;10.27;;;;;;;19.23;68.33;101512.22;5072934;28;20048;-60
2022/07/24 00:21:41;;;;;;;26.63;10.32;;;;;;;19.16;68.88;101512.13;5073320;28;20045;-60
2022/07/24 00:24:08;;;;;;;16.48;9.82;;;;;;;19.21;69.02;101513.41;5073180;28;20052;-60
2022/07/24 00:26:35;;;;;;;21.40;10.95;;;;;;;19.14;69.26;101511.50;5054980;28;20047;-60
2022/07/24 00:29:02;;;;;;;19.60;10.18;;;;;;;19.10;69.24;101510.22;5073212;28;20053;-60
2022/07/24 00:31:29;;;;;;;23.73;10.75;;;;;;;19.08;69.47;101511.41;5072931;28;20048;-61
2022/07/24 00:33:56;;;;;;;20.67;10.30;;;;;;;19.03;69.62;101514.69;5072523;28;20060;-60
2022/07/24 00:36:22;;;;;;;19.15;10.85;;;;;;;19.01;68.90;101508.69;5073066;28;20494;-61
2022/07/24 00:38:49;;;;;;;22.38;11.25;;;;;;;19.02;69.13;101498.75;5072837;28;20040;-60
2022/07/24 00:41:16;;;;;;;22.63;11.35;;;;;;;19.01;69.71;101500.63;5073079;28;20051;-61
2022/07/24 00:44:17;;;;;;;21.10;11.70;;;;;;;18.98;69.21;101499.13;5069189;28;20052;-60
2022/07/24 00:46:46;;;;;;;20.35;10.88;;;;;;;18.89;68.77;101502.97;5052929;28;20099;-62
2022/07/24 00:49:17;;;;;;;22.65;11.13;;;;;;;18.88;68.95;101506.69;5052561;28;20041;-62
2022/07/24 00:51:46;;;;;;;18.88;11.48;;;;;;;18.87;68.31;101498.81;5052866;28;20453;-62
2022/07/24 00:54:15;;;;;;;19.58;10.35;;;;;;;18.77;68.66;101502.59;5053026;28;20049;-62
2022/07/24 00:56:44;;;;;;;18.85;11.27;;;;;;;18.76;68.77;101506.31;5052892;28;20495;-63
2022/07/24 00:59:11;;;;;;;22.60;11.15;;;;;;;18.73;68.50;101505.84;5052812;28;20056;-62
2022/07/24 01:01:38;;;;;;;19.23;10.77;;;;;;;18.72;68.67;101509.56;5052117;28;20099;-62
2022/07/24 01:04:05;;;;;;;20.67;11.15;;;;;;;18.77;68.32;101504.44;5052844;28;20080;-62
2022/07/24 01:06:32;;;;;;;22.88;10.77;;;;;;;18.79;69.07;101515.84;5052661;28;20041;-61
2022/07/24 01:08:59;;;;;;;21.35;11.30;;;;;;;18.86;68.42;101507.88;5052679;28;20053;-61
2022/07/24 01:11:27;;;;;;;17.35;10.35;;;;;;;18.80;68.13;101512.97;5052534;28;20061;-61
2022/07/24 01:13:53;;;;;;;23.37;10.83;;;;;;;18.78;68.65;101509.63;5052561;28;20053;-61
2022/07/24 01:16:20;;;;;;;20.17;11.38;;;;;;;18.81;68.08;101513.84;5052692;28;20049;-61
2022/07/24 01:18:47;;;;;;;18.95;11.25;;;;;;;18.77;68.85;101508.00;5053342;28;20339;-61
2022/07/24 01:21:14;;;;;;;21.15;10.60;;;;;;;18.75;68.86;101504.63;5038579;28;20128;-61
2022/07/24 01:23:41;;;;;;;17.15;10.77;;;;;;;18.78;68.83;101500.75;5056209;28;20056;-61
2022/07/24 01:26:07;;;;;;;18.60;11.05;;;;;;;18.76;68.89;101500.09;5056170;28;20049;-61
2022/07/24 01:28:35;;;;;;;22.98;11.38;;;;;;;18.73;68.16;101503.16;5055853;28;20095;-61
2022/07/24 01:31:02;;;;;;;20.08;11.60;;;;;;;18.75;68.25;101503.81;5056218;28;20487;-61
2022/07/24 01:33:29;;;;;;;20.52;11.43;;;;;;;18.78;68.50;101506.94;5055423;28;20036;-61
2022/07/24 01:35:56;;;;;;;19.05;11.40;;;;;;;18.74;68.93;101504.84;5055880;28;20040;-61
2022/07/24 01:38:23;;;;;;;22.90;11.15;;;;;;;18.73;68.54;101498.63;5056248;28;20079;-61
2022/07/24 01:40:49;;;;;;;23.48;11.90;;;;;;;18.67;68.82;101501.25;5055941;28;20053;-61
2022/07/24 01:43:16;;;;;;;23.98;11.38;;;;;;;18.72;68.61;101496.97;5038320;28;20491;-61
2022/07/24 01:45:43;;;;;;;26.80;11.40;;;;;;;18.63;68.67;101483.81;5055875;28;20049;-62
2022/07/24 01:48:11;;;;;;;23.63;11.10;;;;;;;18.61;68.88;101494.78;5055934;28;20051;-61
2022/07/24 01:50:38;;;;;;;20.98;11.60;;;;;;;18.65;69.04;101495.22;5055339;28;20041;-61
2022/07/24 01:53:04;;;;;;;18.58;10.98;;;;;;;18.61;69.06;101484.03;5055756;28;20435;-61
2022/07/24 01:55:31;;;;;;;26.50;11.20;;;;;;;18.60;69.15;101490.41;5055488;28;20064;-63
2022/07/24 01:57:58;;;;;;;19.55;11.93;;;;;;;18.60;69.17;101487.72;5055726;28;20045;-61
2022/07/24 02:00:25;;;;;;;27.60;12.48;;;;;;;18.64;69.72;101491.69;5055542;28;20051;-61
2022/07/24 02:02:52;;;;;;;20.33;11.35;;;;;;;18.61;69.39;101489.41;5037931;28;20077;-61
2022/07/24 02:05:19;;;;;;;22.00;12.05;;;;;;;18.62;69.70;101480.31;5058206;28;20091;-61
2022/07/24 02:07:56;;;;;;;20.95;11.18;;;;;;;18.50;69.80;101493.41;5055236;28;20458;-61
2022/07/24 02:10:23;;;;;;;19.80;11.40;;;;;;;18.61;69.82;101487.53;5055183;28;20041;-61
2022/07/24 02:12:49;;;;;;;23.10;11.93;;;;;;;18.61;69.76;101486.72;5055263;28;20060;-61
2022/07/24 02:15:16;;;;;;;23.92;11.68;;;;;;;18.53;70.09;101486.81;5055278;28;20048;-61
2022/07/24 02:17:52;;;;;;;19.20;11.00;;;;;;;18.59;70.03;101486.91;5055088;28;20537;-61
2022/07/24 02:20:19;;;;;;;21.70;11.85;;;;;;;18.57;70.04;101480.03;5037476;28;20045;-61
2022/07/24 02:22:46;;;;;;;25.02;12.32;;;;;;;18.54;70.06;101481.25;5055347;28;20076;-61
2022/07/24 02:25:13;;;;;;;23.17;11.63;;;;;;;18.53;69.81;101482.25;5055033;28;20049;-61
2022/07/24 02:27:41;;;;;;;23.33;11.85;;;;;;;18.50;69.97;101485.34;5054628;28;20044;-61
2022/07/24 02:30:11;;;;;;;26.13;12.55;;;;;;;18.51;70.06;101475.44;5054733;28;20041;-61
2022/07/24 02:32:38;;;;;;;24.60;11.80;;;;;;;18.54;69.86;101475.88;5054780;28;20041;-61
2022/07/24 02:35:05;;;;;;;24.60;12.45;;;;;;;18.53;69.73;101471.53;5054118;28;20090;-61
2022/07/24 02:37:36;;;;;;;22.65;11.35;;;;;;;18.51;69.62;101473.56;5054750;28;20098;-61
2022/07/24 02:40:05;;;;;;;21.20;11.60;;;;;;;18.55;70.04;101468.66;5054893;28;20395;-63
2022/07/24 02:42:31;;;;;;;25.08;11.88;;;;;;;18.50;70.54;101476.44;5054768;28;20106;-62
2022/07/24 02:44:58;;;;;;;22.02;11.90;;;;;;;18.49;70.15;101469.41;5068455;28;20367;-62
2022/07/24 02:47:25;;;;;;;21.25;11.70;;;;;;;18.44;70.07;101474.50;5074520;28;20079;-62
2022/07/24 02:49:51;;;;;;;22.52;11.73;;;;;;;18.43;70.18;101471.00;5074683;28;20058;-61
2022/07/24 02:52:19;;;;;;;23.20;11.52;;;;;;;18.42;70.00;101472.00;5057075;28;20068;-62
2022/07/24 02:54:45;;;;;;;21.67;11.40;;;;;;;18.44;70.49;101469.97;5074645;28;20047;-61
2022/07/24 02:57:12;;;;;;;18.60;10.77;;;;;;;18.34;70.46;101467.59;5074292;28;20494;-61
2022/07/24 02:59:38;;;;;;;19.30;11.13;;;;;;;18.36;70.21;101470.91;5074484;28;20048;-61
2022/07/24 03:02:05;;;;;;;22.48;11.45;;;;;;;18.37;70.41;101472.59;5074321;28;20068;-61
2022/07/24 03:04:32;;;;;;;24.13;11.55;;;;;;;18.30;70.72;101470.81;5073670;28;20051;-62
2022/07/24 03:06:59;;;;;;;22.75;11.32;;;;;;;18.25;70.30;101467.88;5074339;28;20163;-62
2022/07/24 03:09:26;;;;;;;18.65;10.25;;;;;;;18.28;70.11;101462.97;5074102;28;20131;-61
2022/07/24 03:11:53;;;;;;;16.35;10.07;;;;;;;18.28;70.30;101462.97;5074027;28;20079;-62
2022/07/24 03:14:19;;;;;;;19.60;11.00;;;;;;;18.23;70.67;101463.53;5074295;28;20068;-63
2022/07/24 03:16:46;;;;;;;21.13;10.93;;;;;;;18.13;70.59;101464.81;5074076;28;20110;-62
2022/07/24 03:19:13;;;;;;;18.00;10.68;;;;;;;18.15;71.26;101458.25;5074022;28;20040;-61
2022/07/24 03:21:39;;;;;;;18.77;10.80;;;;;;;18.18;70.86;101455.19;5074104;28;20402;-61
2022/07/24 03:24:15;;;;;;;22.48;10.95;;;;;;;18.19;70.85;101451.50;5073892;28;20045;-61
2022/07/24 03:26:42;;;;;;;19.15;10.82;;;;;;;18.18;70.89;101449.00;5073875;28;20555;-61
2022/07/24 03:29:08;;;;;;;25.02;10.70;;;;;;;18.18;71.09;101457.06;5073581;28;20490;-62
2022/07/24 03:31:35;;;;;;;20.67;10.75;;;;;;;18.02;70.96;101466.94;5055312;28;20071;-61
2022/07/24 03:34:02;;;;;;;16.00;10.38;;;;;;;18.02;71.27;101466.13;5073917;28;20044;-61
2022/07/24 03:36:28;;;;;;;22.48;11.00;;;;;;;17.98;71.21;101467.53;5073517;28;20450;-61
2022/07/24 03:38:55;;;;;;;19.80;11.05;;;;;;;18.02;71.35;101469.63;5074521;28;20029;-61
2022/07/24 03:41:22;;;;;;;17.90;10.90;;;;;;;18.03;71.40;101470.50;5073346;28;20095;-61
2022/07/24 03:43:48;;;;;;;19.15;11.80;;;;;;;18.09;71.20;101460.84;5068926;28;20039;-61
2022/07/24 03:46:15;;;;;;;22.48;10.63;;;;;;;18.02;71.80;101471.50;5053836;28;20083;-61
2022/07/24 03:48:42;;;;;;;18.33;10.73;;;;;;;18.10;71.73;101466.03;5053481;28;20052;-61
2022/07/24 03:51:08;;;;;;;17.77;10.40;;;;;;;18.07;71.80;101477.16;5053651;28;20049;-61
2022/07/24 03:53:36;;;;;;;22.17;10.93;;;;;;;18.08;72.17;101470.78;5053741;28;20052;-62
2022/07/24 03:56:07;;;;;;;22.05;11.13;;;;;;;18.09;71.72;101471.59;5053490;28;20045;-61
2022/07/24 03:58:34;;;;;;;23.27;11.15;;;;;;;18.03;72.26;101484.75;5053523;28;20045;-61
2022/07/24 04:01:04;;;;;;;19.50;10.90;;;;;;;17.99;72.56;101478.09;5036217;28;20406;-63
2022/07/24 04:03:31;;;;;;;19.80;11.50;;;;;;;18.02;72.58;101479.56;5052464;28;20052;-61
2022/07/24 04:06:00;;;;;;;24.00;11.93;;;;;;;18.08;72.58;101484.19;5054429;28;20390;-61
2022/07/24 04:08:27;;;;;;;21.45;11.23;;;;;;;18.09;72.57;101477.78;5019605;28;20047;-61
2022/07/24 04:10:56;;;;;;;19.10;11.30;;;;;;;17.91;72.49;101482.69;5052982;28;20053;-61
2022/07/24 04:13:25;;;;;;;22.17;12.00;;;;;;;18.01;72.49;101481.41;5053416;28;20052;-61
2022/07/24 04:15:54;;;;;;;19.90;11.13;;;;;;;18.05;73.19;101475.69;5053257;28;20033;-61
2022/07/24 04:18:21;;;;;;;19.15;11.43;;;;;;;18.12;73.04;101474.75;5053153;28;20049;-61
2022/07/24 04:20:48;;;;;;;20.67;11.48;;;;;;;18.10;72.73;101478.63;5053013;28;20120;-61
2022/07/24 04:23:15;;;;;;;24.10;11.15;;;;;;;18.10;72.74;101481.31;5053470;28;20132;-61
2022/07/24 04:25:42;;;;;;;24.63;12.02;;;;;;;18.11;72.61;101475.75;5053073;28;20065;-61
2022/07/24 04:28:09;;;;;;;19.80;11.30;;;;;;;18.10;72.89;101468.72;5053266;28;20091;-61
2022/07/24 04:30:35;;;;;;;19.20;11.50;;;;;;;18.16;72.38;101473.34;5052835;28;20040;-61
2022/07/24 04:33:02;;;;;;;18.10;11.18;;;;;;;18.13;72.14;101479.06;5052973;28;20045;-61
2022/07/24 04:35:29;;;;;;;20.42;11.88;;;;;;;18.11;72.26;101477.59;5052559;28;20075;-62
2022/07/24 04:37:55;;;;;;;20.77;11.15;;;;;;;18.12;72.24;101468.53;5053082;28;20060;-61
2022/07/24 04:40:22;;;;;;;23.10;12.80;;;;;;;18.04;72.24;101469.47;5053189;28;20399;-61
2022/07/24 04:42:49;;;;;;;25.40;11.55;;;;;;;18.11;72.37;101481.13;5052737;28;20460;-63
2022/07/24 04:45:16;;;;;;;19.60;10.95;;;;;;;18.14;71.70;101467.34;5069114;28;20494;-61
2022/07/24 04:47:42;;;;;;;19.83;11.38;;;;;;;18.09;71.84;101464.38;5072938;28;20060;-61
2022/07/24 04:50:09;;;;;;;19.85;11.10;;;;;;;18.19;71.23;101469.44;5072805;28;20052;-61
2022/07/24 04:52:36;;;;;;;20.52;10.82;;;;;;;18.28;71.87;101472.88;5073108;28;20463;-61
2022/07/24 04:55:03;;;;;;;18.48;10.93;;;;;;;18.25;71.32;101467.88;5075862;28;20086;-63
2022/07/24 04:57:30;;;;;;;21.27;11.18;;;;;;;18.25;71.22;101474.09;5076826;28;20071;-61
2022/07/24 04:59:57;;;;;;;16.10;10.10;;;;;;;18.29;71.78;101463.81;5076863;28;20064;-61
2022/07/24 05:02:24;;;;;;;20.60;10.65;;;;;;;18.31;71.56;101467.94;5076480;28;20086;-61
2022/07/24 05:04:51;;;;;;;19.05;11.23;;;;;;;18.30;71.63;101460.06;5058189;28;20036;-61
2022/07/24 05:07:17;;;;;;;20.30;11.02;;;;;;;18.38;71.43;101460.81;5076764;28;20086;-61
2022/07/24 05:09:44;;;;;;;21.00;11.35;;;;;;;18.39;71.37;101465.19;5076568;28;20124;-61
2022/07/24 05:12:11;;;;;;;22.27;10.82;;;;;;;18.44;70.92;101458.41;5076250;28;20080;-62
2022/07/24 05:14:37;;;;;;;17.58;10.93;;;;;;;18.35;71.07;101466.56;5076228;28;20086;-61
2022/07/24 05:17:04;;;;;;;22.05;11.45;;;;;;;18.33;71.28;101462.41;5076165;28;20036;-63
2022/07/24 05:19:31;;;;;;;19.83;11.40;;;;;;;18.44;70.91;101467.28;5076009;28;20068;-61
2022/07/24 05:21:58;;;;;;;20.15;11.23;;;;;;;18.47;71.48;101472.28;5076725;28;20040;-61
2022/07/24 05:24:25;;;;;;;22.45;11.77;;;;;;;18.50;70.48;101474.59;5075844;28;20454;-61
2022/07/24 05:26:53;;;;;;;22.05;11.43;;;;;;;18.50;70.00;101473.75;5076245;28;20068;-61
2022/07/24 05:29:19;;;;;;;23.60;11.88;;;;;;;18.59;69.64;101475.31;5076250;28;20045;-61
2022/07/24 05:31:46;;;;;;;19.73;11.32;;;;;;;18.68;70.17;101484.94;5057747;28;20123;-61
2022/07/24 05:34:13;;;;;;;21.45;11.82;;;;;;;18.77;70.20;101491.88;5076262;28;20049;-61
2022/07/24 05:36:40;;;;;;;26.10;11.05;;;;;;;18.74;69.59;101500.28;5076203;28;20040;-61
2022/07/24 05:39:07;;;;;;;20.58;11.35;;;;;;;18.80;68.50;101504.06;5075683;28;20037;-62
2022/07/24 05:41:34;;;;;;;20.02;11.70;;;;;;;18.82;68.69;101512.81;5076176;28;20045;-62
2022/07/24 05:44:01;;;;;;;18.65;11.43;;;;;;;18.72;69.15;101512.25;5051887;28;20045;-62
2022/07/24 05:46:27;;;;;;;19.80;11.43;;;;;;;18.74;70.09;101505.66;5055638;28;20509;-61
2022/07/24 05:48:54;;;;;;;21.02;11.77;;;;;;;18.76;70.75;101503.63;5055757;28;20051;-63
2022/07/24 05:51:21;;;;;;;22.95;11.93;;;;;;;18.78;70.67;101503.44;5055973;28;20056;-63
2022/07/24 05:53:48;;;;;;;23.85;12.52;;;;;;;18.80;69.56;101509.44;5055889;28;20102;-62
2022/07/24 05:56:15;;;;;;;24.73;13.93;;;;;;;18.95;69.41;101512.94;5055788;28;20045;-61
2022/07/24 05:58:42;;;;;;;25.65;13.00;;;;;;;18.84;69.66;101505.38;5055621;28;20045;-61
2022/07/24 06:01:09;;;;;;;20.70;12.70;;;;;;;18.82;71.10;101501.22;5055658;28;20053;-61
2022/07/24 06:03:37;;;;;;;21.60;12.60;;;;;;;18.79;71.58;101505.94;5055247;28;20056;-62
2022/07/24 06:06:05;;;;;;;25.33;14.65;;;;;;;18.79;70.82;101513.16;5054867;28;20045;-61
2022/07/24 06:08:33;;;;;;;25.85;14.18;;;;;;;18.95;70.79;101514.81;5055726;28;20041;-61
2022/07/24 06:11:00;;;;;;;22.85;13.68;;;;;;;18.85;71.34;101512.44;5054953;28;20065;-61
2022/07/24 06:13:26;;;;;;;25.08;13.60;;;;;;;18.93;71.03;101512.31;5055050;28;20049;-61
2022/07/24 06:15:53;;;;;;;23.52;12.63;;;;;;;19.08;71.00;101512.28;5037498;28;20517;-63
2022/07/24 06:18:20;;;;;;;26.45;13.45;;;;;;;19.12;71.38;101507.34;5037497;28;20037;-61
2022/07/24 06:20:46;;;;;;;23.88;13.52;;;;;;;19.05;70.88;101509.97;5054733;28;20442;-62
2022/07/24 06:23:13;;;;;;;23.73;13.43;;;;;;;19.27;69.95;101515.34;5037404;28;20407;-62
2022/07/24 06:25:40;;;;;;;24.67;13.82;;;;;;;19.19;69.64;101510.91;5055048;28;20368;-62
2022/07/24 06:28:07;;;;;;;21.58;12.75;;;;;;;19.18;70.97;101502.00;5004917;28;20045;-62
2022/07/24 06:30:33;;;;;;;20.80;12.55;;;;;;;19.24;71.52;101504.97;5054209;28;20560;-62
2022/07/24 06:33:00;;;;;;;21.60;12.75;;;;;;;19.27;70.85;101500.03;5054735;28;20783;-61
2022/07/24 06:35:28;;;;;;;20.40;13.00;;;;;;;19.29;69.88;101505.22;5054877;28;20053;-60
2022/07/24 06:37:56;;;;;;;25.23;12.90;;;;;;;19.35;70.28;101504.44;5054936;28;20487;-60
2022/07/24 06:40:22;;;;;;;22.48;13.30;;;;;;;19.36;69.99;101503.41;5054823;28;20095;-60
2022/07/24 06:42:49;;;;;;;20.95;13.52;;;;;;;19.55;68.33;101502.75;5054842;28;20049;-60
2022/07/24 06:45:16;;;;;;;20.63;12.13;;;;;;;19.54;69.46;101495.69;5071018;28;20055;-61
2022/07/24 06:47:43;;;;;;;23.50;12.55;;;;;;;19.56;69.42;101501.72;5074674;28;20057;-62
2022/07/24 06:50:12;;;;;;;21.85;12.93;;;;;;;19.58;68.06;101495.31;5074357;28;20032;-61
2022/07/24 06:52:39;;;;;;;22.52;12.80;;;;;;;19.66;68.69;101495.16;5074607;28;20468;-60
2022/07/24 06:55:06;;;;;;;21.90;12.30;;;;;;;19.67;68.62;101494.97;5074788;28;20048;-61
2022/07/24 06:57:34;;;;;;;24.98;14.38;;;;;;;19.79;67.63;101492.59;5074373;28;20036;-61
2022/07/24 07:00:01;;;;;;;27.75;14.75;;;;;;;19.88;67.92;101491.44;5074252;28;20048;-61
2022/07/24 07:02:28;;;;;;;29.23;13.68;;;;;;;19.95;67.67;101480.69;5074287;28;20045;-61
2022/07/24 07:04:54;;;;;;;24.40;13.38;;;;;;;19.97;66.69;101491.25;5073640;28;20049;-61
2022/07/24 07:07:21;;;;;;;24.38;13.35;;;;;;;19.99;67.73;101487.31;5074393;28;20054;-61
2022/07/24 07:09:48;;;;;;;27.25;13.20;;;;;;;20.08;67.50;101496.06;5070562;28;20094;-61
2022/07/24 07:12:14;;;;;;;20.88;12.60;;;;;;;20.12;67.05;101490.09;5073768;28;20056;-60
2022/07/24 07:14:41;;;;;;;19.30;11.73;;;;;;;20.13;68.17;101493.63;5056214;28;20127;-62
2022/07/24 07:17:07;;;;;;;19.08;12.05;;;;;;;20.31;65.10;101496.63;5073129;28;20449;-61
2022/07/24 07:19:34;;;;;;;19.73;11.90;;;;;;;20.33;65.59;101501.81;5056028;28;20045;-60
2022/07/24 07:22:01;;;;;;;26.25;11.43;;;;;;;20.38;65.55;101490.44;5074218;28;20501;-61
2022/07/24 07:24:28;;;;;;;21.27;11.63;;;;;;;20.49;64.37;101501.47;5073654;28;20491;-62
2022/07/24 07:26:54;;;;;;;21.45;11.30;;;;;;;20.58;64.42;101504.81;5056009;28;20041;-61
2022/07/24 07:29:21;;;;;;;21.98;10.68;;;;;;;20.75;63.77;101501.78;5035806;28;20052;-62
2022/07/24 07:31:49;;;;;;;27.52;11.25;;;;;;;20.74;64.18;101498.28;5073554;28;20098;-62
2022/07/24 07:34:16;;;;;;;21.60;11.85;;;;;;;20.73;63.08;101499.28;5073164;28;20048;-63
2022/07/24 07:36:43;;;;;;;18.42;10.95;;;;;;;20.78;63.56;101493.31;5073623;28;20087;-62
2022/07/24 07:39:10;;;;;;;18.13;10.40;;;;;;;20.88;63.56;101499.97;5073769;28;20052;-62
2022/07/24 07:41:37;;;;;;;20.63;10.85;;;;;;;21.05;61.85;101503.09;5073794;28;20098;-62
2022/07/24 07:44:04;;;;;;;21.85;11.35;;;;;;;21.24;61.47;101509.53;5067056;28;20135;-62
2022/07/24 07:46:31;;;;;;;21.75;12.00;;;;;;;21.28;59.93;101510.81;5051974;28;20067;-62
2022/07/24 07:48:58;;;;;;;20.17;11.55;;;;;;;21.43;59.81;101505.22;5055783;28;20045;-51
2022/07/24 07:51:25;;;;;;;23.13;11.90;;;;;;;21.63;58.69;101505.22;5062153;28;20045;-50
2022/07/24 07:53:51;;;;;;;23.10;13.00;;;;;;;21.81;57.87;101503.75;5073117;28;20418;-52
2022/07/24 07:56:18;;;;;;;23.88;11.38;;;;;;;21.64;58.83;101504.19;5059484;28;20037;-49
2022/07/24 07:58:46;;;;;;;27.23;11.23;;;;;;;21.67;59.15;101500.25;5052598;28;20052;-50
2022/07/24 08:01:12;;;;;;;24.52;12.35;;;;;;;22.02;57.85;101502.69;5055289;28;20033;-50
2022/07/24 08:03:39;;;;;;;23.48;12.63;;;;;;;22.00;58.05;101505.59;5068178;28;20044;-50
2022/07/24 08:06:06;;;;;;;22.23;12.77;;;;;;;22.03;58.50;101505.16;5062386;28;20052;-51
2022/07/24 08:08:33;;;;;;;24.77;12.88;;;;;;;22.22;56.92;101508.03;5059563;28;20510;-49
2022/07/24 08:10:59;;;;;;;25.55;12.48;;;;;;;22.17;57.31;101497.84;5050901;28;20106;-52
2022/07/24 08:13:27;;;;;;;22.13;11.48;;;;;;;22.17;58.21;101489.72;5059746;28;20482;-49
2022/07/24 08:15:53;;;;;;;26.20;12.30;;;;;;;22.30;57.97;101490.75;5041487;28;20048;-49
2022/07/24 08:18:20;;;;;;;22.73;11.15;;;;;;;22.28;58.99;101488.28;5061228;28;20048;-51
2022/07/24 08:20:47;;;;;;;21.50;12.18;;;;;;;22.43;58.20;101486.16;5062587;28;20044;-65
2022/07/24 08:23:13;;;;;;;27.10;12.32;;;;;;;22.48;57.85;101481.97;5061492;28;20047;-64
2022/07/24 08:25:40;;;;;;;21.75;12.35;;;;;;;22.59;57.58;101484.84;5073044;28;20403;-64
2022/07/24 08:28:07;;;;;;;21.73;12.57;;;;;;;22.56;56.22;101481.72;5061564;28;20028;-65
2022/07/24 08:30:34;;;;;;;27.15;11.68;;;;;;;22.60;57.28;101486.47;5060584;28;20048;-64
2022/07/24 08:33:00;;;;;;;23.15;11.60;;;;;;;22.66;56.71;101484.78;5061650;28;20376;-64
2022/07/24 08:35:28;;;;;;;27.17;12.02;;;;;;;22.80;54.63;101480.94;5061976;28;20036;-64
2022/07/24 08:37:58;;;;;;;20.73;11.77;;;;;;;22.89;54.87;101478.00;5065045;28;20403;-64
2022/07/24 08:40:25;;;;;;;28.73;11.52;;;;;;;22.86;55.18;101476.53;5059815;28;20071;-58
2022/07/24 08:42:52;;;;;;;29.40;16.80;;;;;;;23.18;55.01;101476.56;5076643;28;20142;-59
2022/07/24 08:45:19;;;;;;;61.97;40.58;;;;;;;23.33;54.78;101476.25;5070606;28;20072;-59
2022/07/24 08:47:46;;;;;;;26.38;12.95;;;;;;;23.58;51.70;101479.75;5056818;28;20049;-59
2022/07/24 08:50:12;;;;;;;23.45;11.32;;;;;;;23.81;51.73;101472.06;5056702;28;20068;-59
2022/07/24 08:52:39;;;;;;;22.48;11.75;;;;;;;23.78;50.88;101476.03;5059749;28;20051;-60
2022/07/24 08:55:10;;;;;;;20.27;10.57;;;;;;;23.75;51.45;101461.03;5068797;28;20045;-59
2022/07/24 08:57:36;;;;;;;23.67;11.00;;;;;;;23.97;51.76;101463.34;5076421;28;20076;-59
2022/07/24 09:00:05;;;;;;;20.55;10.38;;;;;;;24.13;50.37;101460.03;5076665;28;20509;-59
2022/07/24 09:02:33;;;;;;;17.20;10.38;;;;;;;24.18;50.32;101455.81;5074266;28;20057;-64
2022/07/24 09:05:01;;;;;;;24.00;10.60;;;;;;;24.20;50.83;101457.25;5042019;28;20108;-64
2022/07/24 09:07:29;;;;;;;19.05;10.13;;;;;;;24.26;51.08;101459.03;5067949;28;20057;-64
2022/07/24 09:10:07;;;;;;;18.63;11.18;;;;;;;24.42;49.98;101459.47;5063429;28;20482;-64
2022/07/24 09:12:38;;;;;;;18.40;11.02;;;;;;;24.33;50.30;101453.53;5090221;28;20403;-64
2022/07/24 09:15:14;;;;;;;19.75;10.43;;;;;;;24.43;50.53;101447.53;5090519;28;20046;-64
2022/07/24 09:17:51;;;;;;;21.63;10.73;;;;;;;24.59;50.71;101443.41;5096605;28;20048;-64
2022/07/24 09:20:20;;;;;;;24.15;11.23;;;;;;;24.69;50.51;101443.69;5095672;28;20040;-61
2022/07/24 09:22:47;;;;;;;20.88;11.20;;;;;;;24.91;49.00;101444.78;5095451;28;20071;-63
2022/07/24 09:25:21;;;;;;;18.67;10.07;;;;;;;24.91;49.99;101435.84;5091503;28;20041;-63
2022/07/24 09:30:38;;;;;;;21.52;10.80;;;;;;;25.04;49.44;101437.50;5110566;27;20125;-63
2022/07/24 09:35:50;;;;;;;19.40;10.57;;;;;;;25.45;48.16;101420.31;5111154;27;20350;-63
2022/07/24 09:38:23;;;;;;;22.92;10.38;;;;;;;25.65;48.49;101424.56;5111137;28;20044;-63
2022/07/24 09:40:52;;;;;;;20.27;10.43;;;;;;;25.72;48.20;101417.09;5110992;28;20067;-63
2022/07/24 09:43:22;;;;;;;20.48;10.45;;;;;;;25.75;48.09;101426.66;5111228;28;20104;-63
2022/07/24 09:46:08;;;;;;;20.70;10.95;;;;;;;25.91;46.88;101420.50;5110868;28;20448;-63
2022/07/24 09:48:40;;;;;;;20.63;10.82;;;;;;;25.95;47.68;101418.97;5110781;28;20043;-63
2022/07/24 09:51:14;;;;;;;17.75;10.25;;;;;;;26.21;48.52;101420.31;5111056;28;20050;-63
2022/07/24 09:53:42;;;;;;;19.92;10.95;;;;;;;26.36;46.14;101422.50;5111151;28;20048;-65
2022/07/24 09:56:12;;;;;;;17.17;9.93;;;;;;;26.50;46.14;101417.56;5110523;28;20067;-63
2022/07/24 09:58:48;;;;;;;23.02;10.43;;;;;;;26.46;45.88;101410.97;5110282;28;20048;-63
2022/07/24 10:01:18;;;;;;;19.25;10.55;;;;;;;26.36;45.16;101408.91;5110529;28;20060;-64
2022/07/24 10:03:46;;;;;;;21.52;11.07;;;;;;;26.33;45.59;101403.94;5110338;28;20104;-64
2022/07/24 10:06:17;;;;;;;19.60;9.65;;;;;;;26.43;45.96;101406.00;5110613;28;20104;-63
2022/07/24 10:08:46;;;;;;;18.38;10.32;;;;;;;26.67;45.35;101400.47;5101469;28;20123;-63
2022/07/24 10:11:13;;;;;;;17.55;9.18;;;;;;;26.83;44.47;101401.56;5089643;28;20064;-64
2022/07/24 10:13:41;;;;;;;19.92;9.77;;;;;;;26.97;43.92;101408.34;5089342;28;20055;-64
2022/07/24 10:16:28;;;;;;;20.67;9.85;;;;;;;27.20;43.76;101401.91;5089968;28;20051;-65
2022/07/24 10:19:01;;;;;;;24.00;9.75;;;;;;;27.14;43.85;101390.09;5089728;28;20064;-63
2022/07/24 10:21:31;;;;;;;18.98;9.65;;;;;;;27.43;43.29;101400.06;5090110;28;20097;-64
2022/07/24 10:24:12;;;;;;;16.27;9.70;;;;;;;27.46;43.73;101403.13;5090307;28;20070;-64
2022/07/24 10:26:49;;;;;;;24.60;10.25;;;;;;;27.43;42.55;101386.44;5089916;28;20506;-64
2022/07/24 10:29:20;;;;;;;18.48;9.50;;;;;;;27.64;42.64;101393.00;5089991;28;20486;-64
2022/07/24 10:31:49;;;;;;;18.83;9.15;;;;;;;27.85;42.23;101384.00;5090023;28;20044;-64
2022/07/24 10:40:03;;;;;;;16.35;9.02;;;;;;;28.23;41.49;101379.53;5152409;27;20732;-63
2022/07/24 10:42:30;;;;;;;18.05;8.70;;;;;;;28.53;43.07;101375.50;5131603;27;20089;-64
2022/07/24 10:45:17;;;;;;;17.95;9.48;;;;;;;28.39;40.23;101383.22;5131619;27;20043;-63
2022/07/24 10:47:46;;;;;;;19.33;9.80;;;;;;;28.16;39.90;101378.94;5131306;27;20049;-63
2022/07/24 10:50:16;;;;;;;18.10;8.85;;;;;;;28.00;39.90;101375.22;5131584;27;20078;-64
2022/07/24 10:52:43;;;;;;;20.92;10.13;;;;;;;28.22;41.56;101374.34;5130485;28;20051;-64
2022/07/24 10:55:30;;;;;;;16.10;8.10;;;;;;;28.34;39.89;101369.53;5131474;27;20047;-64
2022/07/24 10:58:03;;;;;;;20.38;8.52;;;;;;;28.32;38.16;101374.44;5131427;27;20082;-64
2022/07/24 11:00:34;;;;;;;15.18;8.18;;;;;;;28.06;38.04;101360.53;5131105;27;20043;-64
2022/07/24 11:03:17;;;;;;;18.60;8.75;;;;;;;28.43;39.35;101359.81;5131492;28;20043;-64
2022/07/24 11:06:17;;;;;;;19.83;9.10;;;;;;;28.76;38.03;101357.97;5131184;27;20046;-64
2022/07/24 11:11:23;;;;;;;17.30;8.02;;;;;;;28.70;37.25;101356.25;5091023;28;20348;-63
2022/07/24 11:13:52;;;;;;;15.75;7.60;;;;;;;28.90;36.86;101355.59;5090576;28;20040;-63
2022/07/24 11:16:22;;;;;;;16.88;8.02;;;;;;;28.83;36.35;101344.88;5090894;28;20082;-63
2022/07/24 11:18:56;;;;;;;14.45;7.35;;;;;;;28.62;34.93;101352.09;5090871;28;20048;-64
2022/07/24 11:21:41;;;;;;;14.13;7.32;;;;;;;28.78;34.75;101352.22;5090894;28;20036;-63
2022/07/24 11:24:22;;;;;;;18.88;7.53;;;;;;;29.14;35.56;101347.84;5090615;28;20040;-63
2022/07/24 11:27:05;;;;;;;;;;;;;;;29.08;34.59;101348.88;5091053;28;20048;-63
2022/07/24 11:29:37;;;;;;;14.68;7.55;;;;;;;29.24;35.11;101339.72;5090438;28;19920;-63